createdAt,value
2022-08-25T00:00:09.515Z,100.00
2022-08-25T00:03:10.143Z,100.00
2022-08-25T00:05:58.259Z,100.00
2022-08-25T00:08:46.392Z,100.00
2022-08-25T00:11:38.890Z,100.00
2022-08-25T00:14:33.693Z,100.00
2022-08-25T00:17:21.415Z,100.00
2022-08-25T00:20:12.229Z,100.00
2022-08-25T00:23:07.554Z,100.00
2022-08-25T00:25:56.537Z,100.00
2022-08-25T00:28:45.416Z,100.00
2022-08-25T00:31:37.917Z,100.00
2022-08-25T00:34:34.476Z,100.00
2022-08-25T00:37:22.701Z,100.00
2022-08-25T00:40:12.889Z,100.00
2022-08-25T00:43:00.906Z,100.00
2022-08-25T00:45:48.999Z,100.00
2022-08-25T00:48:39.147Z,100.00
2022-08-25T00:51:47.215Z,100.00
2022-08-25T00:54:52.329Z,100.00
2022-08-25T00:58:14.245Z,100.00
2022-08-25T01:01:02.230Z,100.00
2022-08-25T01:03:50.863Z,100.00
2022-08-25T01:06:44.719Z,100.00
2022-08-25T01:09:34.035Z,100.00
2022-08-25T01:12:22.679Z,100.00
2022-08-25T01:15:14.338Z,100.00
2022-08-25T01:18:02.282Z,100.00
2022-08-25T01:20:54.935Z,100.00
2022-08-25T01:23:45.392Z,100.00
2022-08-25T01:26:35.946Z,100.00
2022-08-25T01:29:27.256Z,100.00
2022-08-25T01:32:15.590Z,100.00
2022-08-25T01:35:04.422Z,100.00
2022-08-25T01:37:52.394Z,100.00
2022-08-25T01:40:42.972Z,100.00
2022-08-25T01:43:37.676Z,100.00
2022-08-25T01:46:43.702Z,100.00
2022-08-25T01:49:32.727Z,100.00
2022-08-25T01:52:51.127Z,100.00
2022-08-25T01:56:02.754Z,100.00
2022-08-25T01:58:51.942Z,100.00
2022-08-25T02:01:39.856Z,100.00
2022-08-25T02:04:32.492Z,100.00
2022-08-25T02:07:20.741Z,100.00
2022-08-25T02:10:11.690Z,100.00
2022-08-25T02:12:59.593Z,100.00
2022-08-25T02:15:53.127Z,100.00
2022-08-25T02:18:40.989Z,100.00
2022-08-25T02:21:29.948Z,100.00
2022-08-25T02:24:18.942Z,100.00
2022-08-25T02:27:06.986Z,100.00
2022-08-25T02:29:55.034Z,100.00
2022-08-25T02:32:43.074Z,100.00
2022-08-25T02:35:51.771Z,100.00
2022-08-25T02:38:41.877Z,100.00
2022-08-25T02:41:31.393Z,100.00
2022-08-25T02:44:19.804Z,100.00
2022-08-25T02:47:07.772Z,100.00
2022-08-25T02:49:55.886Z,100.00
2022-08-25T02:52:44.363Z,100.00
2022-08-25T02:55:34.553Z,100.00
2022-08-25T02:58:22.799Z,100.00
2022-08-25T03:01:12.240Z,100.00
2022-08-25T03:04:01.907Z,100.00
2022-08-25T03:06:49.675Z,100.00
2022-08-25T03:09:38.305Z,100.00
2022-08-25T03:12:26.430Z,100.00
2022-08-25T03:15:17.432Z,100.00
2022-08-25T03:18:08.749Z,100.00
2022-08-25T03:20:56.681Z,100.00
2022-08-25T03:23:45.359Z,100.00
2022-08-25T03:26:52.199Z,100.00
2022-08-25T03:29:43.398Z,100.00
2022-08-25T03:32:31.357Z,100.00
2022-08-25T03:35:20.403Z,100.00
2022-08-25T03:38:08.427Z,100.00
2022-08-25T03:40:56.433Z,100.00
2022-08-25T03:43:44.504Z,100.00
2022-08-25T03:46:45.084Z,100.00
2022-08-25T03:49:33.007Z,100.00
2022-08-25T03:52:22.550Z,100.00
2022-08-25T03:55:14.509Z,100.00
2022-08-25T03:58:02.527Z,100.00
2022-08-25T04:00:50.503Z,100.00
2022-08-25T04:03:38.653Z,100.00
2022-08-25T04:06:26.733Z,100.00
2022-08-25T04:09:14.755Z,100.00
2022-08-25T04:12:03.190Z,100.00
2022-08-25T04:14:51.248Z,100.00
2022-08-25T04:17:40.750Z,100.00
2022-08-25T04:20:29.067Z,100.00
2022-08-25T04:23:16.988Z,100.00
2022-08-25T04:26:29.719Z,100.00
2022-08-25T04:29:23.572Z,100.00
2022-08-25T04:32:12.307Z,100.00
2022-08-25T04:35:00.537Z,100.00
2022-08-25T04:37:49.033Z,100.00
2022-08-25T04:40:39.114Z,100.00
2022-08-25T04:43:27.319Z,100.00
2022-08-25T04:46:24.765Z,100.00
2022-08-25T04:49:12.813Z,100.00
2022-08-25T04:52:00.826Z,100.00
2022-08-25T04:54:48.744Z,100.00
2022-08-25T04:57:36.600Z,100.00
2022-08-25T05:00:24.569Z,100.00
2022-08-25T05:03:12.552Z,100.00
2022-08-25T05:06:01.504Z,100.00
2022-08-25T05:08:49.804Z,100.00
2022-08-25T05:11:38.976Z,100.00
2022-08-25T05:14:26.963Z,100.00
2022-08-25T05:17:14.944Z,100.00
2022-08-25T05:20:03.458Z,100.00
2022-08-25T05:22:51.746Z,100.00
2022-08-25T05:25:39.531Z,100.00
2022-08-25T05:28:27.452Z,100.00
2022-08-25T05:31:16.759Z,100.00
2022-08-25T05:34:08.908Z,100.00
2022-08-25T05:37:00.312Z,100.00
2022-08-25T05:39:48.683Z,99.76
2022-08-25T05:42:37.287Z,99.35
2022-08-25T05:45:25.508Z,99.00
2022-08-25T05:48:14.203Z,99.13
2022-08-25T05:51:06.817Z,98.51
2022-08-25T05:53:55.277Z,97.98
2022-08-25T05:56:43.363Z,95.92
2022-08-25T05:59:31.255Z,95.31
2022-08-25T06:02:38.187Z,93.63
2022-08-25T06:05:29.816Z,92.75
2022-08-25T06:08:17.797Z,91.65
2022-08-25T06:11:06.010Z,91.38
2022-08-25T06:13:53.844Z,90.87
2022-08-25T06:16:42.066Z,90.23
2022-08-25T06:19:31.469Z,89.49
2022-08-25T06:22:22.672Z,87.61
2022-08-25T06:25:14.059Z,87.70
2022-08-25T06:28:02.313Z,88.40
2022-08-25T06:30:50.334Z,88.91
2022-08-25T06:33:39.593Z,89.39
2022-08-25T06:36:28.431Z,89.13
2022-08-25T06:39:16.144Z,88.81
2022-08-25T06:42:04.405Z,87.47
2022-08-25T06:44:52.373Z,87.04
2022-08-25T06:47:40.345Z,86.48
2022-08-25T06:50:28.876Z,85.82
2022-08-25T06:53:16.871Z,84.16
2022-08-25T06:56:06.811Z,83.42
2022-08-25T06:58:55.129Z,80.27
2022-08-25T07:01:43.683Z,78.28
2022-08-25T07:04:33.707Z,77.71
2022-08-25T07:07:21.704Z,78.00
2022-08-25T07:10:11.155Z,77.40
2022-08-25T07:12:59.288Z,76.61
2022-08-25T07:15:47.433Z,73.82
2022-08-25T07:18:36.200Z,68.47
2022-08-25T07:21:31.252Z,68.43
2022-08-25T07:24:22.633Z,67.71
2022-08-25T07:27:10.743Z,66.46
2022-08-25T07:29:59.665Z,66.55
2022-08-25T07:32:47.596Z,66.22
2022-08-25T07:35:43.706Z,64.71
2022-08-25T07:38:31.649Z,64.49
2022-08-25T07:41:19.701Z,65.25
2022-08-25T07:44:11.285Z,65.58
2022-08-25T07:46:59.519Z,66.06
2022-08-25T07:49:48.299Z,65.91
2022-08-25T07:52:36.453Z,66.50
2022-08-25T07:55:30.559Z,67.34
2022-08-25T07:58:18.439Z,67.89
2022-08-25T08:01:07.536Z,66.38
2022-08-25T08:03:57.610Z,66.46
2022-08-25T08:06:47.130Z,67.48
2022-08-25T08:09:35.055Z,69.08
2022-08-25T08:12:25.863Z,70.09
2022-08-25T08:15:14.595Z,70.58
2022-08-25T08:18:03.343Z,71.39
2022-08-25T08:20:51.669Z,72.37
2022-08-25T08:23:40.420Z,73.08
2022-08-25T08:26:48.105Z,73.01
2022-08-25T08:29:38.927Z,72.68
2022-08-25T08:32:45.060Z,73.10
2022-08-25T08:35:35.226Z,72.80
2022-08-25T08:38:27.160Z,72.73
2022-08-25T08:42:12.001Z,73.64
2022-08-25T08:45:21.408Z,74.78
2022-08-25T08:48:40.749Z,75.88
2022-08-25T08:51:45.909Z,77.20
2022-08-25T08:54:41.313Z,78.27
2022-08-25T08:57:36.056Z,79.29
2022-08-25T09:00:25.692Z,80.75
2022-08-25T09:03:39.673Z,82.37
2022-08-25T09:06:41.484Z,83.36
2022-08-25T09:09:35.474Z,84.59
2022-08-25T09:12:57.050Z,85.76
2022-08-25T09:16:53.210Z,87.27
2022-08-25T09:19:56.318Z,88.94
2022-08-25T09:23:24.964Z,89.53
2022-08-25T09:26:22.219Z,90.53
2022-08-25T09:29:19.482Z,90.95
2022-08-25T09:32:09.010Z,91.47
2022-08-25T09:34:59.822Z,92.02
2022-08-25T09:38:07.265Z,92.16
2022-08-25T09:41:00.826Z,92.40
2022-08-25T09:43:57.727Z,92.54
2022-08-25T09:47:23.517Z,92.78
2022-08-25T09:50:20.210Z,92.63
2022-08-25T09:53:17.132Z,92.63
2022-08-25T09:56:07.730Z,93.03
2022-08-25T09:59:15.516Z,92.76
2022-08-25T10:02:25.872Z,92.57
2022-08-25T10:05:27.430Z,92.68
2022-08-25T10:08:39.426Z,91.92
2022-08-25T10:11:45.797Z,91.27
2022-08-25T10:14:44.405Z,90.54
2022-08-25T10:17:33.792Z,90.43
2022-08-25T10:20:33.077Z,90.25
2022-08-25T10:23:27.663Z,89.74
2022-08-25T10:26:48.355Z,88.73
2022-08-25T10:30:09.137Z,87.70
2022-08-25T10:33:20.742Z,87.13
2022-08-25T10:36:21.338Z,86.07
2022-08-25T10:39:36.286Z,85.32
2022-08-25T10:42:30.956Z,84.42
2022-08-25T10:45:42.088Z,84.38
2022-08-25T10:48:57.396Z,83.64
2022-08-25T10:52:02.460Z,82.82
2022-08-25T10:55:05.337Z,82.13
2022-08-25T10:58:10.115Z,81.23
2022-08-25T11:01:42.886Z,80.16
2022-08-25T11:04:53.581Z,80.03
2022-08-25T11:07:49.971Z,77.78
2022-08-25T11:10:51.420Z,72.79
2022-08-25T11:14:11.251Z,71.63
2022-08-25T11:17:12.094Z,69.57
2022-08-25T11:20:10.496Z,69.18
2022-08-25T11:23:54.119Z,69.65
2022-08-25T11:26:56.633Z,69.16
2022-08-25T11:29:59.610Z,69.28
2022-08-25T11:32:52.975Z,68.63
2022-08-25T11:36:05.938Z,67.65
2022-08-25T11:39:20.563Z,66.38
2022-08-25T11:43:00.982Z,66.47
2022-08-25T11:46:33.193Z,66.33
2022-08-25T11:49:53.850Z,66.42
2022-08-25T11:52:51.764Z,65.78
2022-08-25T11:55:51.952Z,64.62
2022-08-25T11:58:51.895Z,65.11
2022-08-25T12:01:40.124Z,66.41
2022-08-25T12:04:44.992Z,66.52
2022-08-25T12:08:13.863Z,66.57
2022-08-25T12:11:11.276Z,64.73
2022-08-25T12:14:28.794Z,64.31
2022-08-25T12:17:26.695Z,64.32
2022-08-25T12:20:14.872Z,63.95
2022-08-25T12:23:03.842Z,63.27
2022-08-25T12:25:55.426Z,62.35
2022-08-25T12:29:07.540Z,62.36
2022-08-25T12:32:11.247Z,62.89
2022-08-25T12:35:42.623Z,64.02
2022-08-25T12:38:42.492Z,65.32
2022-08-25T12:41:33.591Z,66.44
2022-08-25T12:44:48.111Z,67.30
2022-08-25T12:47:38.391Z,68.68
2022-08-25T12:50:43.377Z,69.63
2022-08-25T12:54:19.080Z,70.89
2022-08-25T12:58:01.125Z,72.18
2022-08-25T13:01:07.676Z,73.22
2022-08-25T13:04:31.608Z,73.92
2022-08-25T13:07:43.548Z,75.00
2022-08-25T13:11:15.723Z,75.85
2022-08-25T13:14:38.088Z,76.44
2022-08-25T13:17:35.724Z,77.03
2022-08-25T13:20:29.348Z,76.92
2022-08-25T13:23:27.362Z,77.44
2022-08-25T13:26:48.688Z,77.60
2022-08-25T13:29:54.112Z,78.17
2022-08-25T13:32:42.043Z,78.80
2022-08-25T13:35:33.087Z,79.04
2022-08-25T13:38:21.011Z,79.19
2022-08-25T13:41:09.810Z,79.30
2022-08-25T13:44:01.786Z,79.42
2022-08-25T13:47:16.481Z,79.33
2022-08-25T13:50:27.024Z,79.34
2022-08-25T13:53:26.816Z,79.12
2022-08-25T13:56:40.734Z,78.82
2022-08-25T13:59:43.889Z,77.60
2022-08-25T14:02:50.279Z,77.36
2022-08-25T14:05:45.660Z,76.91
2022-08-25T14:08:38.878Z,76.15
2022-08-25T14:11:41.132Z,75.84
2022-08-25T14:14:29.781Z,76.27
2022-08-25T14:17:36.304Z,76.40
2022-08-25T14:20:31.326Z,75.73
2022-08-25T14:23:27.635Z,76.04
2022-08-25T14:26:29.794Z,75.22
2022-08-25T14:29:18.522Z,75.21
2022-08-25T14:32:11.319Z,74.85
2022-08-25T14:35:38.891Z,75.15
2022-08-25T14:38:38.873Z,74.95
2022-08-25T14:41:30.739Z,74.45
2022-08-25T14:44:22.103Z,74.30
2022-08-25T14:47:10.332Z,75.27
2022-08-25T14:49:58.735Z,75.86
2022-08-25T14:52:47.080Z,76.04
2022-08-25T14:55:34.984Z,76.06
2022-08-25T14:58:25.716Z,76.49
2022-08-25T15:01:17.230Z,76.29
2022-08-25T15:04:20.584Z,76.60
2022-08-25T15:07:28.228Z,76.98
2022-08-25T15:10:15.798Z,77.07
2022-08-25T15:13:06.473Z,77.41
2022-08-25T15:15:54.683Z,77.25
2022-08-25T15:18:46.429Z,77.21
2022-08-25T15:21:36.783Z,77.24
2022-08-25T15:24:28.867Z,77.72
2022-08-25T15:27:20.709Z,78.34
2022-08-25T15:30:10.624Z,79.27
2022-08-25T15:33:23.922Z,79.86
2022-08-25T15:36:20.689Z,80.46
2022-08-25T15:39:10.025Z,80.90
2022-08-25T15:41:58.116Z,81.25
2022-08-25T15:44:53.282Z,81.66
2022-08-25T15:47:42.315Z,81.73
2022-08-25T15:50:30.796Z,82.32
2022-08-25T15:53:21.477Z,82.79
2022-08-25T15:56:14.318Z,83.11
2022-08-25T15:59:08.677Z,83.47
2022-08-25T16:01:57.355Z,83.39
2022-08-25T16:04:47.769Z,83.51
2022-08-25T16:07:35.758Z,83.79
2022-08-25T16:10:24.366Z,84.02
2022-08-25T16:13:13.280Z,83.88
2022-08-25T16:16:05.494Z,84.01
2022-08-25T16:18:55.896Z,84.71
2022-08-25T16:21:47.464Z,84.66
2022-08-25T16:24:40.110Z,85.14
2022-08-25T16:27:37.786Z,85.62
2022-08-25T16:30:26.980Z,85.83
2022-08-25T16:33:17.145Z,86.12
2022-08-25T16:36:15.367Z,85.99
2022-08-25T16:39:04.017Z,86.46
2022-08-25T16:41:57.822Z,86.43
2022-08-25T16:44:46.827Z,86.70
2022-08-25T16:47:38.213Z,87.03
2022-08-25T16:50:26.075Z,87.14
2022-08-25T16:53:34.831Z,87.78
2022-08-25T16:56:24.869Z,88.20
2022-08-25T16:59:15.559Z,88.97
2022-08-25T17:02:04.021Z,89.76
2022-08-25T17:04:52.916Z,90.37
2022-08-25T17:07:43.219Z,91.05
2022-08-25T17:10:31.270Z,91.32
2022-08-25T17:13:19.280Z,91.87
2022-08-25T17:16:07.806Z,91.98
2022-08-25T17:18:59.118Z,92.46
2022-08-25T17:21:46.818Z,93.02
2022-08-25T17:24:36.226Z,93.03
2022-08-25T17:27:28.761Z,93.43
2022-08-25T17:30:17.094Z,93.45
2022-08-25T17:33:05.871Z,93.28
2022-08-25T17:35:56.618Z,93.36
2022-08-25T17:38:44.800Z,93.50
2022-08-25T17:41:33.727Z,93.81
2022-08-25T17:44:25.987Z,93.88
2022-08-25T17:47:15.243Z,94.10
2022-08-25T17:50:05.140Z,94.19
2022-08-25T17:52:54.613Z,94.65
2022-08-25T17:55:43.138Z,94.37
2022-08-25T17:58:32.113Z,94.62
2022-08-25T18:01:24.033Z,94.70
2022-08-25T18:04:17.382Z,95.39
2022-08-25T18:07:06.127Z,95.76
2022-08-25T18:09:54.290Z,96.02
2022-08-25T18:12:43.792Z,96.32
2022-08-25T18:15:34.160Z,97.55
2022-08-25T18:18:24.181Z,97.29
2022-08-25T18:21:16.577Z,97.70
2022-08-25T18:24:06.247Z,98.19
2022-08-25T18:26:54.007Z,98.12
2022-08-25T18:29:42.581Z,98.47
2022-08-25T18:32:30.586Z,98.51
2022-08-25T18:35:21.413Z,98.66
2022-08-25T18:38:27.996Z,98.56
2022-08-25T18:41:15.966Z,98.86
2022-08-25T18:44:04.887Z,98.87
2022-08-25T18:46:52.860Z,98.69
2022-08-25T18:49:42.404Z,98.82
2022-08-25T18:52:30.485Z,98.81
2022-08-25T18:55:19.792Z,99.10
2022-08-25T18:58:08.294Z,99.18
2022-08-25T19:01:01.036Z,99.39
2022-08-25T19:03:49.670Z,99.38
2022-08-25T19:06:37.662Z,99.54
2022-08-25T19:09:25.711Z,99.68
2022-08-25T19:12:22.490Z,99.88
2022-08-25T19:15:12.920Z,99.91
2022-08-25T19:18:08.013Z,99.93
2022-08-25T19:20:59.105Z,100.00
2022-08-25T19:23:46.848Z,99.98
2022-08-25T19:26:37.131Z,99.96
2022-08-25T19:29:24.940Z,100.00
2022-08-25T19:32:13.121Z,100.00
2022-08-25T19:35:01.281Z,100.00
2022-08-25T19:37:52.054Z,100.00
2022-08-25T19:40:40.001Z,100.00
2022-08-25T19:43:27.910Z,100.00
2022-08-25T19:46:16.071Z,100.00
2022-08-25T19:49:20.617Z,100.00
2022-08-25T19:52:11.727Z,100.00
2022-08-25T19:55:02.729Z,100.00
2022-08-25T19:57:52.300Z,100.00
2022-08-25T20:00:41.288Z,100.00
2022-08-25T20:03:29.337Z,100.00
2022-08-25T20:06:19.348Z,100.00
2022-08-25T20:09:08.450Z,100.00
2022-08-25T20:12:17.990Z,100.00
2022-08-25T20:15:09.446Z,100.00
2022-08-25T20:17:57.178Z,100.00
2022-08-25T20:20:44.933Z,100.00
2022-08-25T20:23:51.469Z,100.00
2022-08-25T20:26:40.761Z,100.00
2022-08-25T20:29:31.990Z,100.00
2022-08-25T20:32:21.384Z,100.00
2022-08-25T20:35:13.201Z,100.00
2022-08-25T20:38:01.491Z,100.00
2022-08-25T20:40:49.451Z,100.00
2022-08-25T20:43:37.443Z,100.00
2022-08-25T20:46:26.211Z,100.00
2022-08-25T20:49:14.850Z,100.00
2022-08-25T20:52:03.686Z,100.00
2022-08-25T20:54:53.053Z,100.00
2022-08-25T20:57:41.032Z,100.00
2022-08-25T21:00:28.759Z,100.00
2022-08-25T21:03:16.816Z,100.00
2022-08-25T21:06:10.294Z,100.00
2022-08-25T21:09:12.475Z,100.00
2022-08-25T21:12:07.403Z,100.00
2022-08-25T21:14:55.862Z,100.00
2022-08-25T21:17:44.853Z,100.00
2022-08-25T21:20:34.826Z,100.00
2022-08-25T21:23:22.257Z,100.00
2022-08-25T21:26:16.527Z,100.00
2022-08-25T21:29:07.958Z,100.00
2022-08-25T21:31:58.951Z,100.00
2022-08-25T21:34:53.212Z,100.00
2022-08-25T21:37:41.244Z,100.00
2022-08-25T21:40:29.897Z,100.00
2022-08-25T21:43:18.532Z,100.00
2022-08-25T21:46:12.247Z,100.00
2022-08-25T21:49:05.928Z,100.00
2022-08-25T21:52:00.538Z,100.00
2022-08-25T21:54:49.215Z,100.00
2022-08-25T21:57:37.081Z,100.00
2022-08-25T22:00:25.295Z,100.00
2022-08-25T22:03:13.517Z,100.00
2022-08-25T22:06:04.022Z,100.00
2022-08-25T22:08:51.946Z,100.00
2022-08-25T22:11:42.277Z,100.00
2022-08-25T22:14:30.459Z,100.00
2022-08-25T22:17:21.121Z,100.00
2022-08-25T22:20:12.606Z,100.00
2022-08-25T22:23:00.802Z,100.00
2022-08-25T22:25:49.287Z,100.00
2022-08-25T22:28:37.115Z,100.00
2022-08-25T22:31:26.138Z,100.00
2022-08-25T22:34:13.850Z,100.00
2022-08-25T22:37:04.678Z,100.00
2022-08-25T22:39:52.824Z,100.00
2022-08-25T22:42:47.361Z,100.00
2022-08-25T22:45:37.043Z,100.00
2022-08-25T22:48:24.998Z,100.00
2022-08-25T22:51:20.946Z,100.00
2022-08-25T22:54:09.780Z,100.00
2022-08-25T22:57:02.360Z,100.00
2022-08-25T22:59:56.691Z,100.00
2022-08-25T23:02:45.414Z,100.00
2022-08-25T23:05:33.524Z,100.00
2022-08-25T23:08:29.397Z,100.00
2022-08-25T23:11:29.240Z,100.00
2022-08-25T23:14:17.334Z,100.00
2022-08-25T23:17:08.246Z,100.00
2022-08-25T23:19:56.479Z,100.00
2022-08-25T23:22:44.422Z,100.00
2022-08-25T23:25:32.246Z,100.00
2022-08-25T23:28:21.768Z,100.00
2022-08-25T23:31:12.785Z,100.00
2022-08-25T23:34:00.927Z,100.00
2022-08-25T23:36:50.776Z,100.00
2022-08-25T23:39:40.902Z,100.00
2022-08-25T23:42:28.726Z,100.00
2022-08-25T23:45:17.069Z,100.00
2022-08-25T23:48:07.902Z,100.00
2022-08-25T23:50:56.174Z,100.00
2022-08-25T23:53:43.916Z,100.00
2022-08-25T23:56:35.893Z,100.00
2022-08-25T23:59:25.638Z,100.00
